sensor_id;sensor_type;location;lat;lon;timestamp;P1;durP1;ratioP1;P2;durP2;ratioP2
3845;SDS011;1938;50.812;7.738;2023-05-14T00:00:49;11.17;;;7.50;;
3845;SDS011;1938;50.812;7.738;2023-05-14T00:03:15;12.50;;;6.83;;
3845;SDS011;1938;50.812;7.738;2023-05-14T00:05:40;11.53;;;5.93;;
3845;SDS011;1938;50.812;7.738;2023-05-14T00:08:06;12.10;;;7.43;;
3845;SDS011;1938;50.812;7.738;2023-05-14T00:10:31;11.97;;;6.33;;
3845;SDS011;1938;50.812;7.738;2023-05-14T00:12:57;10.60;;;6.47;;
3845;SDS011;1938;50.812;7.738;2023-05-14T00:15:23;12.67;;;7.17;;
3845;SDS011;1938;50.812;7.738;2023-05-14T00:17:48;11.43;;;6.63;;
3845;SDS011;1938;50.812;7.738;2023-05-14T00:20:14;14.60;;;8.17;;
3845;SDS011;1938;50.812;7.738;2023-05-14T00:22:40;12.80;;;7.83;;
3845;SDS011;1938;50.812;7.738;2023-05-14T00:25:07;14.77;;;8.13;;
3845;SDS011;1938;50.812;7.738;2023-05-14T00:27:33;9.50;;;6.67;;
3845;SDS011;1938;50.812;7.738;2023-05-14T00:29:59;11.73;;;6.13;;
3845;SDS011;1938;50.812;7.738;2023-05-14T00:32:24;17.13;;;7.97;;
3845;SDS011;1938;50.812;7.738;2023-05-14T00:34:50;11.27;;;6.67;;
3845;SDS011;1938;50.812;7.738;2023-05-14T00:37:15;11.63;;;8.00;;
3845;SDS011;1938;50.812;7.738;2023-05-14T00:39:41;15.83;;;7.90;;
3845;SDS011;1938;50.812;7.738;2023-05-14T00:42:06;13.33;;;8.47;;
3845;SDS011;1938;50.812;7.738;2023-05-14T00:44:32;16.80;;;8.40;;
3845;SDS011;1938;50.812;7.738;2023-05-14T00:46:58;13.00;;;7.70;;
3845;SDS011;1938;50.812;7.738;2023-05-14T00:49:24;11.07;;;7.40;;
3845;SDS011;1938;50.812;7.738;2023-05-14T00:51:50;14.87;;;7.50;;
3845;SDS011;1938;50.812;7.738;2023-05-14T00:54:16;14.63;;;9.40;;
3845;SDS011;1938;50.812;7.738;2023-05-14T00:56:43;11.00;;;7.20;;
3845;SDS011;1938;50.812;7.738;2023-05-14T00:59:09;14.63;;;7.90;;
3845;SDS011;1938;50.812;7.738;2023-05-14T01:01:35;12.07;;;6.57;;
3845;SDS011;1938;50.812;7.738;2023-05-14T01:04:02;12.47;;;7.53;;
3845;SDS011;1938;50.812;7.738;2023-05-14T01:06:35;9.80;;;6.63;;
3845;SDS011;1938;50.812;7.738;2023-05-14T01:09:24;11.90;;;7.70;;
3845;SDS011;1938;50.812;7.738;2023-05-14T01:12:16;13.60;;;7.20;;
3845;SDS011;1938;50.812;7.738;2023-05-14T01:14:57;13.70;;;7.80;;
3845;SDS011;1938;50.812;7.738;2023-05-14T01:17:45;14.47;;;7.00;;
3845;SDS011;1938;50.812;7.738;2023-05-14T01:20:15;12.80;;;8.07;;
3845;SDS011;1938;50.812;7.738;2023-05-14T01:22:41;16.90;;;8.30;;
3845;SDS011;1938;50.812;7.738;2023-05-14T01:25:07;18.13;;;7.93;;
3845;SDS011;1938;50.812;7.738;2023-05-14T01:27:44;12.60;;;7.70;;
3845;SDS011;1938;50.812;7.738;2023-05-14T01:30:28;15.53;;;7.67;;
3845;SDS011;1938;50.812;7.738;2023-05-14T01:32:58;15.17;;;9.47;;
3845;SDS011;1938;50.812;7.738;2023-05-14T01:35:27;17.80;;;7.33;;
3845;SDS011;1938;50.812;7.738;2023-05-14T01:37:55;14.40;;;7.30;;
3845;SDS011;1938;50.812;7.738;2023-05-14T01:40:22;15.67;;;7.23;;
3845;SDS011;1938;50.812;7.738;2023-05-14T01:42:49;11.90;;;7.67;;
3845;SDS011;1938;50.812;7.738;2023-05-14T01:45:20;12.03;;;7.00;;
3845;SDS011;1938;50.812;7.738;2023-05-14T01:47:47;15.40;;;8.00;;
3845;SDS011;1938;50.812;7.738;2023-05-14T01:50:14;22.90;;;7.50;;
3845;SDS011;1938;50.812;7.738;2023-05-14T01:52:39;14.93;;;8.00;;
3845;SDS011;1938;50.812;7.738;2023-05-14T01:55:05;14.03;;;9.10;;
3845;SDS011;1938;50.812;7.738;2023-05-14T01:57:31;13.33;;;7.27;;
3845;SDS011;1938;50.812;7.738;2023-05-14T01:59:56;11.50;;;7.10;;
3845;SDS011;1938;50.812;7.738;2023-05-14T02:02:22;12.47;;;8.67;;
3845;SDS011;1938;50.812;7.738;2023-05-14T02:04:47;14.23;;;5.57;;
3845;SDS011;1938;50.812;7.738;2023-05-14T02:07:13;8.60;;;3.50;;
3845;SDS011;1938;50.812;7.738;2023-05-14T02:09:39;12.60;;;7.80;;
3845;SDS011;1938;50.812;7.738;2023-05-14T02:12:05;12.00;;;7.57;;
3845;SDS011;1938;50.812;7.738;2023-05-14T02:14:32;16.43;;;9.00;;
3845;SDS011;1938;50.812;7.738;2023-05-14T02:16:57;13.80;;;10.40;;
3845;SDS011;1938;50.812;7.738;2023-05-14T02:19:24;12.60;;;8.40;;
3845;SDS011;1938;50.812;7.738;2023-05-14T02:21:49;11.90;;;7.20;;
3845;SDS011;1938;50.812;7.738;2023-05-14T02:24:15;11.57;;;8.43;;
3845;SDS011;1938;50.812;7.738;2023-05-14T02:26:40;16.00;;;9.57;;
3845;SDS011;1938;50.812;7.738;2023-05-14T02:29:06;12.70;;;8.17;;
3845;SDS011;1938;50.812;7.738;2023-05-14T02:31:32;15.90;;;9.50;;
3845;SDS011;1938;50.812;7.738;2023-05-14T02:33:58;7.97;;;4.67;;
3845;SDS011;1938;50.812;7.738;2023-05-14T02:36:25;11.50;;;6.80;;
3845;SDS011;1938;50.812;7.738;2023-05-14T02:38:50;15.27;;;9.23;;
3845;SDS011;1938;50.812;7.738;2023-05-14T02:41:15;15.17;;;7.20;;
3845;SDS011;1938;50.812;7.738;2023-05-14T02:43:41;13.10;;;9.40;;
3845;SDS011;1938;50.812;7.738;2023-05-14T02:46:07;14.97;;;9.10;;
3845;SDS011;1938;50.812;7.738;2023-05-14T02:48:32;13.03;;;8.00;;
3845;SDS011;1938;50.812;7.738;2023-05-14T02:50:58;20.77;;;10.03;;
3845;SDS011;1938;50.812;7.738;2023-05-14T02:53:24;16.40;;;8.50;;
3845;SDS011;1938;50.812;7.738;2023-05-14T02:55:49;13.63;;;8.30;;
3845;SDS011;1938;50.812;7.738;2023-05-14T02:58:15;14.90;;;8.10;;
3845;SDS011;1938;50.812;7.738;2023-05-14T03:00:41;17.60;;;9.50;;
3845;SDS011;1938;50.812;7.738;2023-05-14T03:03:06;11.67;;;6.83;;
3845;SDS011;1938;50.812;7.738;2023-05-14T03:05:32;16.60;;;8.37;;
3845;SDS011;1938;50.812;7.738;2023-05-14T03:07:57;20.70;;;8.33;;
3845;SDS011;1938;50.812;7.738;2023-05-14T03:10:23;13.67;;;8.33;;
3845;SDS011;1938;50.812;7.738;2023-05-14T03:12:49;13.70;;;8.07;;
3845;SDS011;1938;50.812;7.738;2023-05-14T03:15:15;14.87;;;9.60;;
3845;SDS011;1938;50.812;7.738;2023-05-14T03:17:43;16.77;;;7.70;;
3845;SDS011;1938;50.812;7.738;2023-05-14T03:20:09;14.60;;;7.90;;
3845;SDS011;1938;50.812;7.738;2023-05-14T03:22:36;12.83;;;7.60;;
3845;SDS011;1938;50.812;7.738;2023-05-14T03:25:01;13.23;;;8.77;;
3845;SDS011;1938;50.812;7.738;2023-05-14T03:27:27;15.90;;;7.83;;
3845;SDS011;1938;50.812;7.738;2023-05-14T03:29:53;15.20;;;8.73;;
3845;SDS011;1938;50.812;7.738;2023-05-14T03:32:18;12.33;;;7.47;;
3845;SDS011;1938;50.812;7.738;2023-05-14T03:34:45;18.13;;;7.37;;
3845;SDS011;1938;50.812;7.738;2023-05-14T03:37:10;11.87;;;7.37;;
3845;SDS011;1938;50.812;7.738;2023-05-14T03:39:36;12.57;;;7.37;;
3845;SDS011;1938;50.812;7.738;2023-05-14T03:42:01;23.83;;;8.87;;
3845;SDS011;1938;50.812;7.738;2023-05-14T03:44:27;13.70;;;9.07;;
3845;SDS011;1938;50.812;7.738;2023-05-14T03:46:53;14.80;;;7.90;;
3845;SDS011;1938;50.812;7.738;2023-05-14T03:49:18;12.73;;;8.07;;
3845;SDS011;1938;50.812;7.738;2023-05-14T03:51:44;11.50;;;7.93;;
3845;SDS011;1938;50.812;7.738;2023-05-14T03:54:09;14.53;;;9.63;;
3845;SDS011;1938;50.812;7.738;2023-05-14T03:56:35;14.80;;;8.33;;
3845;SDS011;1938;50.812;7.738;2023-05-14T03:59:00;10.60;;;6.90;;
3845;SDS011;1938;50.812;7.738;2023-05-14T04:01:26;15.63;;;7.97;;
3845;SDS011;1938;50.812;7.738;2023-05-14T04:03:54;14.70;;;8.57;;
3845;SDS011;1938;50.812;7.738;2023-05-14T04:06:20;14.23;;;7.80;;
3845;SDS011;1938;50.812;7.738;2023-05-14T04:08:45;13.60;;;7.70;;
3845;SDS011;1938;50.812;7.738;2023-05-14T04:11:11;12.80;;;8.00;;
3845;SDS011;1938;50.812;7.738;2023-05-14T04:13:37;13.10;;;8.50;;
3845;SDS011;1938;50.812;7.738;2023-05-14T04:16:02;12.90;;;8.07;;
3845;SDS011;1938;50.812;7.738;2023-05-14T04:18:28;20.67;;;8.20;;
3845;SDS011;1938;50.812;7.738;2023-05-14T04:20:54;15.37;;;8.70;;
3845;SDS011;1938;50.812;7.738;2023-05-14T04:23:20;10.50;;;6.50;;
3845;SDS011;1938;50.812;7.738;2023-05-14T04:25:46;11.17;;;6.67;;
3845;SDS011;1938;50.812;7.738;2023-05-14T04:28:11;11.60;;;5.87;;
3845;SDS011;1938;50.812;7.738;2023-05-14T04:30:37;11.57;;;6.20;;
3845;SDS011;1938;50.812;7.738;2023-05-14T04:33:02;8.87;;;5.07;;
3845;SDS011;1938;50.812;7.738;2023-05-14T04:35:28;12.67;;;7.63;;
3845;SDS011;1938;50.812;7.738;2023-05-14T04:37:53;11.87;;;6.63;;
3845;SDS011;1938;50.812;7.738;2023-05-14T04:40:19;13.17;;;6.40;;
3845;SDS011;1938;50.812;7.738;2023-05-14T04:42:44;7.60;;;5.53;;
3845;SDS011;1938;50.812;7.738;2023-05-14T04:45:10;12.77;;;7.00;;
3845;SDS011;1938;50.812;7.738;2023-05-14T04:47:37;16.40;;;5.47;;
3845;SDS011;1938;50.812;7.738;2023-05-14T04:50:03;9.90;;;5.70;;
3845;SDS011;1938;50.812;7.738;2023-05-14T04:52:28;9.60;;;5.17;;
3845;SDS011;1938;50.812;7.738;2023-05-14T04:54:54;8.47;;;5.23;;
3845;SDS011;1938;50.812;7.738;2023-05-14T04:57:20;9.17;;;5.60;;
3845;SDS011;1938;50.812;7.738;2023-05-14T04:59:46;8.57;;;5.50;;
3845;SDS011;1938;50.812;7.738;2023-05-14T05:02:11;10.97;;;5.70;;
3845;SDS011;1938;50.812;7.738;2023-05-14T05:04:37;9.67;;;6.10;;
3845;SDS011;1938;50.812;7.738;2023-05-14T05:07:03;8.50;;;5.40;;
3845;SDS011;1938;50.812;7.738;2023-05-14T05:09:30;8.70;;;5.03;;
3845;SDS011;1938;50.812;7.738;2023-05-14T05:11:56;12.07;;;5.83;;
3845;SDS011;1938;50.812;7.738;2023-05-14T05:14:21;7.70;;;4.50;;
3845;SDS011;1938;50.812;7.738;2023-05-14T05:16:47;6.40;;;4.53;;
3845;SDS011;1938;50.812;7.738;2023-05-14T05:19:12;8.17;;;5.40;;
3845;SDS011;1938;50.812;7.738;2023-05-14T05:21:38;8.10;;;5.43;;
3845;SDS011;1938;50.812;7.738;2023-05-14T05:24:04;7.20;;;4.77;;
3845;SDS011;1938;50.812;7.738;2023-05-14T05:26:31;8.83;;;5.17;;
3845;SDS011;1938;50.812;7.738;2023-05-14T05:31:32;7.17;;;4.57;;
3845;SDS011;1938;50.812;7.738;2023-05-14T05:33:58;6.30;;;5.10;;
3845;SDS011;1938;50.812;7.738;2023-05-14T05:36:25;5.13;;;4.40;;
3845;SDS011;1938;50.812;7.738;2023-05-14T05:38:51;7.40;;;4.40;;
3845;SDS011;1938;50.812;7.738;2023-05-14T05:41:17;7.73;;;4.20;;
3845;SDS011;1938;50.812;7.738;2023-05-14T05:43:42;5.20;;;4.17;;
3845;SDS011;1938;50.812;7.738;2023-05-14T05:46:11;10.70;;;4.27;;
3845;SDS011;1938;50.812;7.738;2023-05-14T05:48:36;7.70;;;4.40;;
3845;SDS011;1938;50.812;7.738;2023-05-14T05:51:02;5.30;;;4.27;;
3845;SDS011;1938;50.812;7.738;2023-05-14T05:53:27;7.40;;;4.93;;
3845;SDS011;1938;50.812;7.738;2023-05-14T05:55:54;5.73;;;4.07;;
3845;SDS011;1938;50.812;7.738;2023-05-14T05:58:20;10.03;;;4.30;;
3845;SDS011;1938;50.812;7.738;2023-05-14T06:00:46;6.80;;;3.50;;
3845;SDS011;1938;50.812;7.738;2023-05-14T06:03:12;7.57;;;3.60;;
3845;SDS011;1938;50.812;7.738;2023-05-14T06:05:37;7.90;;;4.10;;
3845;SDS011;1938;50.812;7.738;2023-05-14T06:08:03;5.30;;;3.87;;
3845;SDS011;1938;50.812;7.738;2023-05-14T06:10:29;4.70;;;3.70;;
3845;SDS011;1938;50.812;7.738;2023-05-14T06:12:55;27.63;;;20.73;;
3845;SDS011;1938;50.812;7.738;2023-05-14T06:15:21;7.23;;;5.43;;
3845;SDS011;1938;50.812;7.738;2023-05-14T06:17:47;12.80;;;4.57;;
3845;SDS011;1938;50.812;7.738;2023-05-14T06:20:12;10.13;;;3.30;;
3845;SDS011;1938;50.812;7.738;2023-05-14T06:22:38;4.20;;;3.10;;
3845;SDS011;1938;50.812;7.738;2023-05-14T06:25:04;3.83;;;2.93;;
3845;SDS011;1938;50.812;7.738;2023-05-14T06:27:30;3.83;;;3.10;;
3845;SDS011;1938;50.812;7.738;2023-05-14T06:29:56;3.57;;;2.80;;
3845;SDS011;1938;50.812;7.738;2023-05-14T06:32:21;4.07;;;2.70;;
3845;SDS011;1938;50.812;7.738;2023-05-14T06:34:47;4.63;;;2.93;;
3845;SDS011;1938;50.812;7.738;2023-05-14T06:37:12;7.17;;;3.90;;
3845;SDS011;1938;50.812;7.738;2023-05-14T06:39:38;4.43;;;3.10;;
3845;SDS011;1938;50.812;7.738;2023-05-14T06:42:04;3.53;;;3.20;;
3845;SDS011;1938;50.812;7.738;2023-05-14T06:44:31;4.70;;;3.07;;
3845;SDS011;1938;50.812;7.738;2023-05-14T06:46:56;6.80;;;3.27;;
3845;SDS011;1938;50.812;7.738;2023-05-14T06:49:22;5.67;;;3.20;;
3845;SDS011;1938;50.812;7.738;2023-05-14T06:51:47;4.00;;;3.37;;
3845;SDS011;1938;50.812;7.738;2023-05-14T06:54:13;4.97;;;3.10;;
3845;SDS011;1938;50.812;7.738;2023-05-14T06:56:38;5.67;;;3.37;;
3845;SDS011;1938;50.812;7.738;2023-05-14T06:59:04;5.30;;;2.93;;
3845;SDS011;1938;50.812;7.738;2023-05-14T07:01:30;5.00;;;3.53;;
3845;SDS011;1938;50.812;7.738;2023-05-14T07:03:55;8.43;;;3.80;;
3845;SDS011;1938;50.812;7.738;2023-05-14T07:06:21;4.33;;;3.00;;
3845;SDS011;1938;50.812;7.738;2023-05-14T07:08:47;6.20;;;3.53;;
3845;SDS011;1938;50.812;7.738;2023-05-14T07:11:13;3.47;;;2.83;;
3845;SDS011;1938;50.812;7.738;2023-05-14T07:13:39;5.33;;;3.20;;
3845;SDS011;1938;50.812;7.738;2023-05-14T07:16:06;5.77;;;2.77;;
3845;SDS011;1938;50.812;7.738;2023-05-14T07:18:34;3.63;;;2.70;;
3845;SDS011;1938;50.812;7.738;2023-05-14T07:21:00;4.00;;;2.77;;
3845;SDS011;1938;50.812;7.738;2023-05-14T07:23:25;4.70;;;3.03;;
3845;SDS011;1938;50.812;7.738;2023-05-14T07:25:52;3.63;;;2.97;;
3845;SDS011;1938;50.812;7.738;2023-05-14T07:28:18;4.20;;;2.87;;
3845;SDS011;1938;50.812;7.738;2023-05-14T07:30:43;3.87;;;2.77;;
3845;SDS011;1938;50.812;7.738;2023-05-14T07:33:09;3.83;;;2.80;;
3845;SDS011;1938;50.812;7.738;2023-05-14T07:35:34;5.30;;;2.53;;
3845;SDS011;1938;50.812;7.738;2023-05-14T07:38:00;3.10;;;2.40;;
3845;SDS011;1938;50.812;7.738;2023-05-14T07:40:25;5.77;;;3.00;;
3845;SDS011;1938;50.812;7.738;2023-05-14T07:42:51;2.73;;;2.23;;
3845;SDS011;1938;50.812;7.738;2023-05-14T07:45:16;4.07;;;2.40;;
3845;SDS011;1938;50.812;7.738;2023-05-14T07:47:42;3.57;;;2.37;;
3845;SDS011;1938;50.812;7.738;2023-05-14T07:50:08;5.67;;;2.40;;
3845;SDS011;1938;50.812;7.738;2023-05-14T07:52:34;3.73;;;3.33;;
3845;SDS011;1938;50.812;7.738;2023-05-14T07:55:01;4.53;;;3.10;;
3845;SDS011;1938;50.812;7.738;2023-05-14T07:57:27;4.30;;;3.60;;
3845;SDS011;1938;50.812;7.738;2023-05-14T07:59:52;5.13;;;2.93;;
3845;SDS011;1938;50.812;7.738;2023-05-14T08:02:19;7.37;;;3.20;;
3845;SDS011;1938;50.812;7.738;2023-05-14T08:04:44;4.77;;;3.50;;
3845;SDS011;1938;50.812;7.738;2023-05-14T08:07:10;7.70;;;3.27;;
3845;SDS011;1938;50.812;7.738;2023-05-14T08:09:35;4.67;;;2.90;;
3845;SDS011;1938;50.812;7.738;2023-05-14T08:12:01;4.13;;;2.93;;
3845;SDS011;1938;50.812;7.738;2023-05-14T08:14:27;3.70;;;2.80;;
3845;SDS011;1938;50.812;7.738;2023-05-14T08:16:53;4.10;;;2.80;;
3845;SDS011;1938;50.812;7.738;2023-05-14T08:19:18;4.83;;;2.10;;
3845;SDS011;1938;50.812;7.738;2023-05-14T08:21:44;9.80;;;4.30;;
3845;SDS011;1938;50.812;7.738;2023-05-14T08:24:10;3.10;;;2.23;;
3845;SDS011;1938;50.812;7.738;2023-05-14T08:26:36;3.33;;;2.80;;
3845;SDS011;1938;50.812;7.738;2023-05-14T08:29:02;5.13;;;2.60;;
3845;SDS011;1938;50.812;7.738;2023-05-14T08:31:28;2.57;;;2.20;;
3845;SDS011;1938;50.812;7.738;2023-05-14T08:33:54;2.80;;;2.20;;
3845;SDS011;1938;50.812;7.738;2023-05-14T08:36:19;2.47;;;1.90;;
3845;SDS011;1938;50.812;7.738;2023-05-14T08:38:45;5.47;;;2.37;;
3845;SDS011;1938;50.812;7.738;2023-05-14T08:41:10;2.80;;;2.20;;
3845;SDS011;1938;50.812;7.738;2023-05-14T08:46:25;4.87;;;2.97;;
3845;SDS011;1938;50.812;7.738;2023-05-14T08:48:55;3.83;;;2.40;;
3845;SDS011;1938;50.812;7.738;2023-05-14T08:51:26;3.10;;;2.30;;
3845;SDS011;1938;50.812;7.738;2023-05-14T08:53:52;4.30;;;2.80;;
3845;SDS011;1938;50.812;7.738;2023-05-14T08:56:17;3.00;;;2.00;;
3845;SDS011;1938;50.812;7.738;2023-05-14T08:58:43;4.63;;;2.33;;
3845;SDS011;1938;50.812;7.738;2023-05-14T09:01:09;5.43;;;2.67;;
3845;SDS011;1938;50.812;7.738;2023-05-14T09:03:34;3.20;;;2.10;;
3845;SDS011;1938;50.812;7.738;2023-05-14T09:06:00;2.87;;;2.10;;
3845;SDS011;1938;50.812;7.738;2023-05-14T09:08:27;3.57;;;2.20;;
3845;SDS011;1938;50.812;7.738;2023-05-14T09:10:53;2.60;;;2.00;;
3845;SDS011;1938;50.812;7.738;2023-05-14T09:13:19;2.97;;;2.00;;
3845;SDS011;1938;50.812;7.738;2023-05-14T09:15:44;3.50;;;2.23;;
3845;SDS011;1938;50.812;7.738;2023-05-14T09:18:11;2.70;;;1.90;;
3845;SDS011;1938;50.812;7.738;2023-05-14T09:20:37;2.77;;;2.10;;
3845;SDS011;1938;50.812;7.738;2023-05-14T09:23:03;3.50;;;2.73;;
3845;SDS011;1938;50.812;7.738;2023-05-14T09:25:29;2.80;;;1.97;;
3845;SDS011;1938;50.812;7.738;2023-05-14T09:27:56;7.90;;;2.67;;
3845;SDS011;1938;50.812;7.738;2023-05-14T09:30:22;2.53;;;2.20;;
3845;SDS011;1938;50.812;7.738;2023-05-14T09:32:49;3.10;;;2.27;;
3845;SDS011;1938;50.812;7.738;2023-05-14T09:35:21;4.27;;;2.10;;
3845;SDS011;1938;50.812;7.738;2023-05-14T09:37:49;5.30;;;2.60;;
3845;SDS011;1938;50.812;7.738;2023-05-14T09:40:16;2.90;;;2.30;;
3845;SDS011;1938;50.812;7.738;2023-05-14T09:42:43;5.43;;;2.20;;
3845;SDS011;1938;50.812;7.738;2023-05-14T09:45:09;3.93;;;2.30;;
3845;SDS011;1938;50.812;7.738;2023-05-14T09:47:36;3.63;;;2.60;;
3845;SDS011;1938;50.812;7.738;2023-05-14T09:50:03;3.37;;;2.50;;
3845;SDS011;1938;50.812;7.738;2023-05-14T09:52:29;3.87;;;2.77;;
3845;SDS011;1938;50.812;7.738;2023-05-14T09:54:55;3.13;;;2.43;;
3845;SDS011;1938;50.812;7.738;2023-05-14T09:57:20;10.13;;;2.43;;
3845;SDS011;1938;50.812;7.738;2023-05-14T09:59:46;3.40;;;2.60;;
3845;SDS011;1938;50.812;7.738;2023-05-14T10:02:15;9.27;;;7.23;;
3845;SDS011;1938;50.812;7.738;2023-05-14T10:04:49;4.30;;;3.07;;
3845;SDS011;1938;50.812;7.738;2023-05-14T10:07:18;2.90;;;2.53;;
3845;SDS011;1938;50.812;7.738;2023-05-14T10:09:50;4.17;;;2.57;;
3845;SDS011;1938;50.812;7.738;2023-05-14T10:12:21;3.40;;;2.40;;
3845;SDS011;1938;50.812;7.738;2023-05-14T10:14:48;3.30;;;2.23;;
3845;SDS011;1938;50.812;7.738;2023-05-14T10:17:18;2.73;;;2.20;;
3845;SDS011;1938;50.812;7.738;2023-05-14T10:19:53;5.17;;;2.40;;
3845;SDS011;1938;50.812;7.738;2023-05-14T10:22:22;2.77;;;2.03;;
3845;SDS011;1938;50.812;7.738;2023-05-14T10:24:51;2.33;;;1.63;;
3845;SDS011;1938;50.812;7.738;2023-05-14T10:27:18;2.50;;;1.80;;
3845;SDS011;1938;50.812;7.738;2023-05-14T10:29:49;2.70;;;1.90;;
3845;SDS011;1938;50.812;7.738;2023-05-14T10:32:23;2.43;;;1.90;;
3845;SDS011;1938;50.812;7.738;2023-05-14T10:34:50;2.50;;;1.73;;
3845;SDS011;1938;50.812;7.738;2023-05-14T10:37:26;3.60;;;1.70;;
3845;SDS011;1938;50.812;7.738;2023-05-14T10:39:58;5.07;;;2.40;;
3845;SDS011;1938;50.812;7.738;2023-05-14T10:42:33;2.40;;;2.03;;
3845;SDS011;1938;50.812;7.738;2023-05-14T10:45:05;2.10;;;1.70;;
3845;SDS011;1938;50.812;7.738;2023-05-14T10:47:32;2.80;;;2.20;;
3845;SDS011;1938;50.812;7.738;2023-05-14T10:50:07;4.40;;;2.50;;
3845;SDS011;1938;50.812;7.738;2023-05-14T10:52:34;3.63;;;2.43;;
3845;SDS011;1938;50.812;7.738;2023-05-14T10:55:04;3.47;;;2.10;;
3845;SDS011;1938;50.812;7.738;2023-05-14T10:57:32;3.00;;;2.30;;
3845;SDS011;1938;50.812;7.738;2023-05-14T11:00:01;3.37;;;1.90;;
3845;SDS011;1938;50.812;7.738;2023-05-14T11:02:31;2.40;;;1.73;;
3845;SDS011;1938;50.812;7.738;2023-05-14T11:05:05;5.10;;;1.90;;
3845;SDS011;1938;50.812;7.738;2023-05-14T11:07:33;6.70;;;3.73;;
3845;SDS011;1938;50.812;7.738;2023-05-14T11:10:07;19.83;;;14.30;;
3845;SDS011;1938;50.812;7.738;2023-05-14T11:12:36;4.83;;;3.30;;
3845;SDS011;1938;50.812;7.738;2023-05-14T11:15:17;4.73;;;2.80;;
3845;SDS011;1938;50.812;7.738;2023-05-14T11:17:45;3.10;;;2.20;;
3845;SDS011;1938;50.812;7.738;2023-05-14T11:20:12;5.70;;;2.13;;
3845;SDS011;1938;50.812;7.738;2023-05-14T11:22:39;5.13;;;3.50;;
3845;SDS011;1938;50.812;7.738;2023-05-14T11:25:06;6.03;;;3.43;;
3845;SDS011;1938;50.812;7.738;2023-05-14T11:27:33;3.10;;;2.20;;
3845;SDS011;1938;50.812;7.738;2023-05-14T11:30:00;4.17;;;2.40;;
3845;SDS011;1938;50.812;7.738;2023-05-14T11:32:25;3.57;;;2.20;;
3845;SDS011;1938;50.812;7.738;2023-05-14T11:34:51;3.20;;;2.00;;
3845;SDS011;1938;50.812;7.738;2023-05-14T11:37:17;2.80;;;2.00;;
3845;SDS011;1938;50.812;7.738;2023-05-14T11:40:06;3.37;;;2.20;;
3845;SDS011;1938;50.812;7.738;2023-05-14T11:42:33;2.60;;;1.70;;
3845;SDS011;1938;50.812;7.738;2023-05-14T11:45:01;2.50;;;1.90;;
3845;SDS011;1938;50.812;7.738;2023-05-14T11:47:28;3.00;;;1.97;;
3845;SDS011;1938;50.812;7.738;2023-05-14T11:49:55;3.63;;;2.00;;
3845;SDS011;1938;50.812;7.738;2023-05-14T11:52:21;3.47;;;1.90;;
3845;SDS011;1938;50.812;7.738;2023-05-14T11:54:47;3.77;;;2.23;;
3845;SDS011;1938;50.812;7.738;2023-05-14T11:57:17;2.80;;;1.80;;
3845;SDS011;1938;50.812;7.738;2023-05-14T11:59:44;5.10;;;2.43;;
3845;SDS011;1938;50.812;7.738;2023-05-14T12:02:10;2.40;;;1.60;;
3845;SDS011;1938;50.812;7.738;2023-05-14T12:04:37;3.17;;;2.03;;
3845;SDS011;1938;50.812;7.738;2023-05-14T12:07:11;2.70;;;2.00;;
3845;SDS011;1938;50.812;7.738;2023-05-14T12:09:39;2.80;;;1.87;;
3845;SDS011;1938;50.812;7.738;2023-05-14T12:12:09;2.90;;;1.90;;
3845;SDS011;1938;50.812;7.738;2023-05-14T12:14:36;3.00;;;1.60;;
3845;SDS011;1938;50.812;7.738;2023-05-14T12:17:08;2.60;;;1.93;;
3845;SDS011;1938;50.812;7.738;2023-05-14T12:19:42;4.00;;;1.70;;
3845;SDS011;1938;50.812;7.738;2023-05-14T12:22:12;2.50;;;1.60;;
3845;SDS011;1938;50.812;7.738;2023-05-14T12:24:39;2.13;;;1.40;;
3845;SDS011;1938;50.812;7.738;2023-05-14T12:27:07;2.20;;;1.67;;
3845;SDS011;1938;50.812;7.738;2023-05-14T12:29:35;3.07;;;1.80;;
3845;SDS011;1938;50.812;7.738;2023-05-14T12:32:05;2.70;;;1.70;;
3845;SDS011;1938;50.812;7.738;2023-05-14T12:34:33;2.10;;;1.60;;
3845;SDS011;1938;50.812;7.738;2023-05-14T12:36:59;2.93;;;1.83;;
3845;SDS011;1938;50.812;7.738;2023-05-14T12:39:25;2.60;;;1.83;;
3845;SDS011;1938;50.812;7.738;2023-05-14T12:41:51;5.60;;;1.70;;
3845;SDS011;1938;50.812;7.738;2023-05-14T12:44:16;2.53;;;1.90;;
3845;SDS011;1938;50.812;7.738;2023-05-14T12:46:42;2.07;;;1.53;;
3845;SDS011;1938;50.812;7.738;2023-05-14T12:49:08;2.20;;;1.50;;
3845;SDS011;1938;50.812;7.738;2023-05-14T12:51:33;2.93;;;1.50;;
3845;SDS011;1938;50.812;7.738;2023-05-14T12:53:59;3.00;;;1.60;;
3845;SDS011;1938;50.812;7.738;2023-05-14T12:56:24;2.53;;;1.87;;
3845;SDS011;1938;50.812;7.738;2023-05-14T12:58:53;5.00;;;2.03;;
3845;SDS011;1938;50.812;7.738;2023-05-14T13:01:19;4.70;;;1.80;;
3845;SDS011;1938;50.812;7.738;2023-05-14T13:03:46;2.70;;;1.60;;
3845;SDS011;1938;50.812;7.738;2023-05-14T13:06:12;2.70;;;1.70;;
3845;SDS011;1938;50.812;7.738;2023-05-14T13:08:37;2.53;;;1.70;;
3845;SDS011;1938;50.812;7.738;2023-05-14T13:11:03;2.60;;;1.50;;
3845;SDS011;1938;50.812;7.738;2023-05-14T13:13:28;5.80;;;1.47;;
3845;SDS011;1938;50.812;7.738;2023-05-14T13:15:54;4.80;;;1.87;;
3845;SDS011;1938;50.812;7.738;2023-05-14T13:18:19;2.87;;;1.43;;
3845;SDS011;1938;50.812;7.738;2023-05-14T13:20:45;5.00;;;2.13;;
3845;SDS011;1938;50.812;7.738;2023-05-14T13:23:11;5.80;;;1.63;;
3845;SDS011;1938;50.812;7.738;2023-05-14T13:25:37;2.57;;;1.53;;
3845;SDS011;1938;50.812;7.738;2023-05-14T13:28:03;3.73;;;2.00;;
3845;SDS011;1938;50.812;7.738;2023-05-14T13:30:29;2.37;;;1.57;;
3845;SDS011;1938;50.812;7.738;2023-05-14T13:32:55;2.63;;;1.70;;
3845;SDS011;1938;50.812;7.738;2023-05-14T13:35:22;3.70;;;1.67;;
3845;SDS011;1938;50.812;7.738;2023-05-14T13:37:48;2.20;;;1.70;;
3845;SDS011;1938;50.812;7.738;2023-05-14T13:40:14;11.23;;;8.00;;
3845;SDS011;1938;50.812;7.738;2023-05-14T13:42:40;3.60;;;2.23;;
3845;SDS011;1938;50.812;7.738;2023-05-14T13:45:06;2.60;;;2.00;;
3845;SDS011;1938;50.812;7.738;2023-05-14T13:47:32;2.33;;;1.63;;
3845;SDS011;1938;50.812;7.738;2023-05-14T13:49:58;2.57;;;1.60;;
3845;SDS011;1938;50.812;7.738;2023-05-14T13:52:24;3.10;;;2.30;;
3845;SDS011;1938;50.812;7.738;2023-05-14T13:54:50;2.97;;;1.80;;
3845;SDS011;1938;50.812;7.738;2023-05-14T13:57:16;4.53;;;2.20;;
3845;SDS011;1938;50.812;7.738;2023-05-14T13:59:43;3.93;;;1.70;;
3845;SDS011;1938;50.812;7.738;2023-05-14T14:02:10;3.33;;;2.40;;
3845;SDS011;1938;50.812;7.738;2023-05-14T14:04:36;3.60;;;1.70;;
3845;SDS011;1938;50.812;7.738;2023-05-14T14:07:01;4.00;;;1.60;;
3845;SDS011;1938;50.812;7.738;2023-05-14T14:09:27;3.10;;;1.67;;
3845;SDS011;1938;50.812;7.738;2023-05-14T14:11:52;3.07;;;2.30;;
3845;SDS011;1938;50.812;7.738;2023-05-14T14:14:18;3.47;;;2.00;;
3845;SDS011;1938;50.812;7.738;2023-05-14T14:16:44;3.27;;;2.10;;
3845;SDS011;1938;50.812;7.738;2023-05-14T14:19:10;2.80;;;1.70;;
3845;SDS011;1938;50.812;7.738;2023-05-14T14:21:35;2.47;;;1.97;;
3845;SDS011;1938;50.812;7.738;2023-05-14T14:24:03;3.67;;;1.90;;
3845;SDS011;1938;50.812;7.738;2023-05-14T14:26:30;2.33;;;1.77;;
3845;SDS011;1938;50.812;7.738;2023-05-14T14:28:55;3.20;;;1.77;;
3845;SDS011;1938;50.812;7.738;2023-05-14T14:31:21;5.10;;;2.90;;
3845;SDS011;1938;50.812;7.738;2023-05-14T14:33:46;2.73;;;1.60;;
3845;SDS011;1938;50.812;7.738;2023-05-14T14:36:12;2.93;;;1.60;;
3845;SDS011;1938;50.812;7.738;2023-05-14T14:38:37;2.70;;;1.33;;
3845;SDS011;1938;50.812;7.738;2023-05-14T14:41:03;1.60;;;1.00;;
3845;SDS011;1938;50.812;7.738;2023-05-14T14:43:31;3.13;;;1.70;;
3845;SDS011;1938;50.812;7.738;2023-05-14T14:45:58;2.10;;;1.50;;
3845;SDS011;1938;50.812;7.738;2023-05-14T14:48:24;2.97;;;1.63;;
3845;SDS011;1938;50.812;7.738;2023-05-14T14:50:55;4.23;;;1.67;;
3845;SDS011;1938;50.812;7.738;2023-05-14T14:53:22;2.37;;;1.40;;
3845;SDS011;1938;50.812;7.738;2023-05-14T14:55:48;4.30;;;1.60;;
3845;SDS011;1938;50.812;7.738;2023-05-14T14:58:16;2.47;;;1.60;;
3845;SDS011;1938;50.812;7.738;2023-05-14T15:00:43;2.77;;;1.67;;
3845;SDS011;1938;50.812;7.738;2023-05-14T15:03:09;2.23;;;1.60;;
3845;SDS011;1938;50.812;7.738;2023-05-14T15:05:35;4.73;;;1.70;;
3845;SDS011;1938;50.812;7.738;2023-05-14T15:08:01;2.27;;;1.70;;
3845;SDS011;1938;50.812;7.738;2023-05-14T15:10:27;2.63;;;1.50;;
3845;SDS011;1938;50.812;7.738;2023-05-14T15:12:53;2.20;;;1.50;;